createdAt,value
2019-02-14T00:03:23.465Z,18.90
2019-02-14T00:08:26.792Z,18.92
2019-02-14T00:13:30.129Z,18.91
2019-02-14T00:18:33.455Z,18.90
2019-02-14T00:23:36.760Z,18.90
2019-02-14T00:28:40.081Z,18.91
2019-02-14T00:33:43.476Z,18.92
2019-02-14T00:38:46.849Z,18.92
2019-02-14T00:43:50.155Z,18.91
2019-02-14T00:48:53.459Z,18.96
2019-02-14T00:53:56.896Z,18.92
2019-02-14T00:59:00.229Z,18.95
2019-02-14T01:04:03.563Z,18.94
2019-02-14T01:09:07.067Z,18.95
2019-02-14T01:14:10.462Z,18.98
2019-02-14T01:19:15.464Z,18.97
2019-02-14T01:24:18.963Z,19.00
2019-02-14T01:29:22.337Z,18.99
2019-02-14T01:34:25.750Z,19.00
2019-02-14T01:39:29.147Z,19.00
2019-02-14T01:44:32.483Z,18.98
2019-02-14T01:49:35.794Z,18.97
2019-02-14T01:54:39.206Z,18.99
2019-02-14T01:59:42.539Z,18.99
2019-02-14T02:04:45.869Z,18.99
2019-02-14T02:09:49.177Z,19.00
2019-02-14T02:14:52.502Z,18.98
2019-02-14T02:19:55.833Z,18.97
2019-02-14T02:24:59.165Z,19.01
2019-02-14T02:30:02.867Z,19.01
2019-02-14T02:35:07.535Z,18.98
2019-02-14T02:40:10.852Z,19.00
2019-02-14T02:45:14.177Z,18.98
2019-02-14T02:50:17.501Z,19.04
2019-02-14T02:55:20.904Z,18.99
2019-02-14T03:00:24.217Z,19.03
2019-02-14T03:05:27.643Z,19.03
2019-02-14T03:10:30.969Z,19.06
2019-02-14T03:15:34.301Z,19.04
2019-02-14T03:20:37.639Z,19.07
2019-02-14T03:25:40.968Z,19.06
2019-02-14T03:30:44.315Z,19.06
2019-02-14T03:35:47.642Z,19.07
2019-02-14T03:40:50.967Z,19.06
2019-02-14T03:45:54.365Z,19.02
2019-02-14T03:50:57.691Z,19.04
2019-02-14T03:56:01.029Z,19.04
2019-02-14T04:01:04.326Z,19.06
2019-02-14T04:06:07.657Z,19.01
2019-02-14T04:11:11.096Z,19.04
2019-02-14T04:16:14.404Z,19.02
2019-02-14T04:21:17.732Z,19.05
2019-02-14T04:26:21.047Z,19.04
2019-02-14T04:31:24.399Z,19.06
2019-02-14T04:36:35.548Z,19.06
2019-02-14T04:41:32.827Z,19.05
2019-02-14T04:46:36.161Z,19.08
2019-02-14T04:51:39.496Z,19.11
2019-02-14T04:56:42.828Z,19.10
2019-02-14T05:01:46.230Z,19.07
2019-02-14T05:06:49.555Z,19.09
2019-02-14T05:11:52.885Z,19.06
2019-02-14T05:16:56.267Z,19.12
2019-02-14T05:21:59.684Z,19.08
2019-02-14T05:27:03.017Z,19.06
2019-02-14T05:32:06.354Z,19.10
2019-02-14T05:37:09.801Z,19.07
2019-02-14T05:42:13.140Z,19.08
2019-02-14T05:47:16.479Z,19.11
2019-02-14T05:52:19.781Z,19.08
2019-02-14T05:57:23.193Z,19.10
2019-02-14T06:02:26.519Z,19.34
2019-02-14T06:07:29.851Z,19.58
2019-02-14T06:12:33.162Z,19.29
2019-02-14T06:17:36.562Z,19.19
2019-02-14T06:22:39.886Z,19.17
2019-02-14T06:27:43.222Z,19.18
2019-02-14T06:32:46.553Z,19.09
2019-02-14T06:37:49.909Z,19.12
2019-02-14T06:42:53.239Z,19.09
2019-02-14T06:47:56.593Z,19.07
2019-02-14T06:52:59.911Z,19.06
2019-02-14T06:58:03.246Z,19.10
2019-02-14T07:03:06.576Z,19.11
2019-02-14T07:08:09.946Z,19.05
2019-02-14T07:13:13.262Z,19.02
2019-02-14T07:18:16.593Z,19.13
2019-02-14T07:23:19.954Z,19.10
2019-02-14T07:28:23.358Z,19.14
2019-02-14T07:33:26.740Z,19.10
2019-02-14T07:38:30.191Z,19.12
2019-02-14T07:43:33.568Z,19.12
2019-02-14T07:48:36.901Z,19.12
2019-02-14T07:53:40.235Z,19.10
2019-02-14T07:58:43.549Z,19.14
2019-02-14T08:03:46.961Z,19.13
2019-02-14T08:08:50.292Z,19.11
2019-02-14T08:13:53.639Z,19.12
2019-02-14T08:18:57.097Z,19.15
2019-02-14T08:24:00.499Z,19.14
2019-02-14T08:29:03.914Z,19.14
2019-02-14T08:34:07.222Z,19.12
2019-02-14T08:39:10.536Z,19.14
2019-02-14T08:44:13.845Z,19.14
2019-02-14T08:49:17.172Z,19.14
2019-02-14T08:59:41.484Z,19.17
2019-02-14T09:04:44.864Z,19.16
2019-02-14T09:09:48.192Z,19.17
2019-02-14T09:14:51.523Z,19.18
2019-02-14T09:19:54.874Z,19.22
2019-02-14T09:24:58.325Z,19.22
2019-02-14T09:30:01.671Z,19.23
2019-02-14T09:35:07.012Z,19.23
2019-02-14T09:40:16.076Z,19.21
2019-02-14T09:45:19.405Z,19.23
2019-02-14T09:50:22.879Z,19.22
2019-02-14T09:55:26.211Z,19.24
2019-02-14T10:00:29.540Z,19.26
2019-02-14T10:05:32.982Z,19.23
2019-02-14T10:10:36.339Z,19.26
2019-02-14T10:15:39.638Z,19.24
2019-02-14T10:20:42.970Z,19.22
2019-02-14T10:25:46.375Z,19.25
2019-02-14T10:30:49.691Z,19.24
2019-02-14T10:35:53.021Z,19.25
2019-02-14T10:40:56.347Z,19.26
2019-02-14T10:45:59.675Z,19.22
2019-02-14T10:51:03.049Z,19.28
2019-02-14T10:56:06.437Z,19.29
2019-02-14T11:01:09.801Z,19.24
2019-02-14T11:06:13.131Z,19.24
2019-02-14T11:11:16.521Z,19.25
2019-02-14T11:16:19.954Z,19.28
2019-02-14T11:21:23.288Z,19.29
2019-02-14T11:26:26.673Z,19.26
2019-02-14T11:31:29.985Z,19.28
2019-02-14T11:36:33.316Z,19.28
2019-02-14T11:41:36.753Z,19.32
2019-02-14T11:46:40.089Z,19.29
2019-02-14T11:51:43.504Z,19.31
2019-02-14T11:56:46.868Z,19.30
2019-02-14T12:01:55.382Z,19.33
2019-02-14T12:06:55.331Z,19.31
2019-02-14T12:11:58.732Z,19.37
2019-02-14T12:17:02.254Z,19.34
2019-02-14T12:22:05.589Z,19.32
2019-02-14T12:27:08.931Z,19.31
2019-02-14T12:32:12.260Z,19.37
2019-02-14T12:37:16.124Z,19.33
2019-02-14T12:42:19.577Z,19.31
2019-02-14T12:47:22.972Z,19.32
2019-02-14T12:52:26.376Z,19.36
2019-02-14T12:57:29.721Z,19.36
2019-02-14T13:02:33.285Z,19.38
2019-02-14T13:07:36.603Z,19.35
2019-02-14T13:12:40.043Z,19.37
2019-02-14T13:17:44.494Z,19.40
2019-02-14T13:22:47.903Z,19.32
2019-02-14T13:27:51.219Z,19.35
2019-02-14T13:32:54.557Z,19.39
2019-02-14T13:37:57.897Z,19.38
2019-02-14T13:43:01.222Z,19.41
2019-02-14T13:48:04.572Z,19.44
2019-02-14T13:53:07.912Z,19.41
2019-02-14T13:58:11.274Z,19.44
2019-02-14T14:03:14.670Z,19.40
2019-02-14T14:08:18.113Z,19.42
2019-02-14T14:13:21.449Z,19.43
2019-02-14T14:18:24.833Z,19.44
2019-02-14T14:23:28.172Z,19.39
2019-02-14T14:28:31.527Z,19.42
2019-02-14T14:33:34.928Z,19.37
2019-02-14T14:38:38.272Z,19.40
2019-02-14T14:43:43.254Z,19.40
2019-02-14T14:48:46.615Z,19.42
2019-02-14T14:53:49.942Z,19.33
2019-02-14T14:58:53.288Z,19.40
2019-02-14T15:03:56.604Z,19.37
2019-02-14T15:08:59.936Z,19.40
2019-02-14T15:14:03.312Z,19.42
2019-02-14T15:19:06.654Z,19.38
2019-02-14T15:24:09.986Z,19.42
2019-02-14T15:29:13.321Z,19.41
2019-02-14T15:34:16.656Z,19.43
2019-02-14T15:39:20.011Z,19.45
2019-02-14T15:44:23.359Z,19.39
2019-02-14T15:49:26.702Z,19.45
2019-02-14T15:54:31.384Z,19.41
2019-02-14T15:59:35.142Z,19.44
2019-02-14T16:04:38.584Z,19.42
2019-02-14T16:09:41.960Z,19.44
2019-02-14T16:14:45.296Z,19.42
2019-02-14T16:19:48.692Z,19.48
2019-02-14T16:24:52.030Z,19.47
2019-02-14T16:30:00.501Z,19.47
2019-02-14T16:35:04.314Z,19.56
2019-02-14T16:40:09.584Z,19.51
2019-02-14T16:45:12.966Z,19.51
2019-02-14T16:50:16.322Z,19.47
2019-02-14T16:55:19.654Z,19.48
2019-02-14T17:00:23.161Z,19.49
2019-02-14T17:05:26.471Z,19.50
2019-02-14T17:10:36.666Z,19.52
2019-02-14T17:15:34.928Z,19.47
2019-02-14T17:20:38.330Z,19.53
2019-02-14T17:25:41.669Z,19.50
2019-02-14T17:30:45.008Z,19.58
2019-02-14T17:35:48.506Z,19.57
2019-02-14T17:40:51.879Z,19.56
2019-02-14T17:45:55.294Z,19.53
2019-02-14T17:50:58.641Z,19.55
2019-02-14T17:56:02.048Z,19.56
2019-02-14T18:01:05.406Z,19.58
2019-02-14T18:06:08.766Z,19.55
2019-02-14T18:11:12.054Z,19.58
2019-02-14T18:16:15.445Z,19.56
2019-02-14T18:21:18.776Z,19.57
2019-02-14T18:26:22.187Z,19.56
2019-02-14T18:31:25.525Z,19.63
2019-02-14T18:36:28.899Z,19.67
2019-02-14T18:41:32.203Z,19.71
2019-02-14T18:46:35.619Z,19.65
2019-02-14T18:51:39.427Z,19.62
2019-02-14T18:56:42.846Z,19.61
2019-02-14T19:01:46.248Z,19.67
2019-02-14T19:06:49.583Z,19.59
2019-02-14T19:11:53.058Z,19.61
2019-02-14T19:16:56.382Z,19.62
2019-02-14T19:21:59.709Z,19.61
2019-02-14T19:27:03.035Z,19.61
2019-02-14T19:32:06.408Z,19.62
2019-02-14T19:37:09.737Z,19.63
2019-02-14T19:42:13.086Z,19.66
2019-02-14T19:47:16.419Z,19.66
2019-02-14T19:52:19.742Z,19.66
2019-02-14T19:57:23.298Z,19.65
2019-02-14T20:02:26.629Z,19.70
2019-02-14T20:07:30.030Z,19.69
2019-02-14T20:12:33.495Z,19.70
2019-02-14T20:17:36.813Z,19.71
2019-02-14T20:22:40.151Z,19.67
2019-02-14T20:27:43.457Z,19.68
2019-02-14T20:32:46.786Z,19.67
2019-02-14T20:37:50.115Z,19.71
2019-02-14T20:42:53.569Z,19.72
2019-02-14T20:47:57.439Z,19.74
2019-02-14T20:53:00.905Z,19.71
2019-02-14T20:58:04.298Z,19.70
2019-02-14T21:03:07.768Z,19.72
2019-02-14T21:08:11.138Z,19.78
2019-02-14T21:13:14.493Z,19.75
2019-02-14T21:18:17.865Z,19.73
2019-02-14T21:23:21.235Z,19.79
2019-02-14T21:28:24.541Z,19.77
2019-02-14T21:33:27.843Z,19.81
2019-02-14T21:38:31.179Z,19.80
2019-02-14T21:43:34.521Z,19.82
2019-02-14T21:48:37.860Z,19.77
2019-02-14T21:53:41.195Z,19.78
2019-02-14T21:58:44.583Z,19.81
2019-02-14T22:03:47.947Z,19.84
2019-02-14T22:08:51.291Z,19.87
2019-02-14T22:13:54.621Z,19.85
2019-02-14T22:18:58.043Z,19.83
2019-02-14T22:24:01.436Z,19.85
2019-02-14T22:29:04.762Z,19.87
2019-02-14T22:34:08.164Z,19.89
2019-02-14T22:39:11.508Z,20.04
2019-02-14T22:44:14.830Z,20.04
2019-02-14T22:49:18.160Z,19.93
2019-02-14T22:54:21.500Z,19.91
2019-02-14T22:59:24.985Z,19.90
2019-02-14T23:04:58.863Z,19.90
2019-02-14T23:10:02.181Z,19.91
2019-02-14T23:15:07.230Z,19.92
2019-02-14T23:20:10.540Z,19.89
2019-02-14T23:25:13.839Z,19.87
2019-02-14T23:30:17.156Z,19.86
2019-02-14T23:35:20.470Z,19.82
2019-02-14T23:40:23.762Z,19.82
2019-02-14T23:45:27.084Z,19.82
2019-02-14T23:50:30.400Z,19.82
2019-02-14T23:55:33.703Z,19.81
